sensor_id;sensor_type;location;lat;lon;timestamp;P1;durP1;ratioP1;P2;durP2;ratioP2
27025;SDS011;14565;48.626;8.978;2022-08-30T00:02:39;10.32;;;5.97;;
27025;SDS011;14565;48.626;8.978;2022-08-30T00:05:05;8.40;;;6.28;;
27025;SDS011;14565;48.626;8.978;2022-08-30T00:07:31;10.60;;;6.22;;
27025;SDS011;14565;48.626;8.978;2022-08-30T00:09:56;10.25;;;6.75;;
27025;SDS011;14565;48.626;8.978;2022-08-30T00:12:22;8.95;;;6.90;;
27025;SDS011;14565;48.626;8.978;2022-08-30T00:14:48;9.60;;;6.95;;
27025;SDS011;14565;48.626;8.978;2022-08-30T00:17:14;7.43;;;6.45;;
27025;SDS011;14565;48.626;8.978;2022-08-30T00:19:40;12.52;;;6.85;;
27025;SDS011;14565;48.626;8.978;2022-08-30T00:22:05;9.40;;;6.80;;
27025;SDS011;14565;48.626;8.978;2022-08-30T00:24:31;9.57;;;6.60;;
27025;SDS011;14565;48.626;8.978;2022-08-30T00:26:57;8.70;;;6.32;;
27025;SDS011;14565;48.626;8.978;2022-08-30T00:29:22;9.13;;;6.57;;
27025;SDS011;14565;48.626;8.978;2022-08-30T00:31:48;10.68;;;6.72;;
27025;SDS011;14565;48.626;8.978;2022-08-30T00:34:14;10.00;;;6.65;;
27025;SDS011;14565;48.626;8.978;2022-08-30T00:36:40;8.48;;;6.38;;
27025;SDS011;14565;48.626;8.978;2022-08-30T00:39:07;9.55;;;6.88;;
27025;SDS011;14565;48.626;8.978;2022-08-30T00:41:33;9.90;;;6.75;;
27025;SDS011;14565;48.626;8.978;2022-08-30T00:43:59;8.90;;;6.95;;
27025;SDS011;14565;48.626;8.978;2022-08-30T00:46:25;7.65;;;6.30;;
27025;SDS011;14565;48.626;8.978;2022-08-30T00:48:51;9.82;;;7.85;;
27025;SDS011;14565;48.626;8.978;2022-08-30T00:51:17;9.48;;;7.70;;
27025;SDS011;14565;48.626;8.978;2022-08-30T00:53:46;9.63;;;6.68;;
27025;SDS011;14565;48.626;8.978;2022-08-30T00:56:15;9.90;;;7.18;;
27025;SDS011;14565;48.626;8.978;2022-08-30T00:58:43;8.27;;;6.55;;
27025;SDS011;14565;48.626;8.978;2022-08-30T01:01:12;12.43;;;6.93;;
27025;SDS011;14565;48.626;8.978;2022-08-30T01:03:39;9.45;;;6.70;;
27025;SDS011;14565;48.626;8.978;2022-08-30T01:08:33;10.55;;;6.88;;
27025;SDS011;14565;48.626;8.978;2022-08-30T01:10:59;10.02;;;7.25;;
27025;SDS011;14565;48.626;8.978;2022-08-30T01:13:27;11.15;;;6.95;;
27025;SDS011;14565;48.626;8.978;2022-08-30T01:15:54;9.70;;;7.07;;
27025;SDS011;14565;48.626;8.978;2022-08-30T01:18:21;11.15;;;6.75;;
27025;SDS011;14565;48.626;8.978;2022-08-30T01:23:33;9.88;;;7.00;;
27025;SDS011;14565;48.626;8.978;2022-08-30T01:26:02;13.98;;;7.13;;
27025;SDS011;14565;48.626;8.978;2022-08-30T01:28:29;9.88;;;7.43;;
27025;SDS011;14565;48.626;8.978;2022-08-30T01:30:56;10.57;;;6.95;;
27025;SDS011;14565;48.626;8.978;2022-08-30T01:33:22;11.32;;;7.30;;
27025;SDS011;14565;48.626;8.978;2022-08-30T01:35:50;13.40;;;9.10;;
27025;SDS011;14565;48.626;8.978;2022-08-30T01:38:19;10.48;;;8.52;;
27025;SDS011;14565;48.626;8.978;2022-08-30T01:40:48;9.95;;;7.05;;
27025;SDS011;14565;48.626;8.978;2022-08-30T01:43:14;8.70;;;7.05;;
27025;SDS011;14565;48.626;8.978;2022-08-30T01:45:40;9.02;;;7.38;;
27025;SDS011;14565;48.626;8.978;2022-08-30T01:48:06;9.63;;;6.60;;
27025;SDS011;14565;48.626;8.978;2022-08-30T01:50:33;12.07;;;7.43;;
27025;SDS011;14565;48.626;8.978;2022-08-30T01:52:58;8.98;;;6.93;;
27025;SDS011;14565;48.626;8.978;2022-08-30T01:55:24;10.35;;;7.28;;
27025;SDS011;14565;48.626;8.978;2022-08-30T01:57:50;10.77;;;7.03;;
27025;SDS011;14565;48.626;8.978;2022-08-30T02:00:16;10.13;;;7.13;;
27025;SDS011;14565;48.626;8.978;2022-08-30T02:02:42;8.18;;;6.68;;
27025;SDS011;14565;48.626;8.978;2022-08-30T02:05:08;8.50;;;6.63;;
27025;SDS011;14565;48.626;8.978;2022-08-30T02:07:34;7.95;;;6.75;;
27025;SDS011;14565;48.626;8.978;2022-08-30T02:10:00;10.10;;;7.03;;
27025;SDS011;14565;48.626;8.978;2022-08-30T02:12:26;11.93;;;7.30;;
27025;SDS011;14565;48.626;8.978;2022-08-30T02:14:52;11.60;;;8.00;;
27025;SDS011;14565;48.626;8.978;2022-08-30T02:17:18;10.35;;;8.10;;
27025;SDS011;14565;48.626;8.978;2022-08-30T02:19:44;9.20;;;7.65;;
27025;SDS011;14565;48.626;8.978;2022-08-30T02:22:10;13.45;;;8.25;;
27025;SDS011;14565;48.626;8.978;2022-08-30T02:24:36;11.90;;;7.68;;
27025;SDS011;14565;48.626;8.978;2022-08-30T02:27:02;11.13;;;8.32;;
27025;SDS011;14565;48.626;8.978;2022-08-30T02:29:28;8.70;;;7.35;;
27025;SDS011;14565;48.626;8.978;2022-08-30T02:31:54;11.43;;;8.30;;
27025;SDS011;14565;48.626;8.978;2022-08-30T02:34:20;10.82;;;8.45;;
27025;SDS011;14565;48.626;8.978;2022-08-30T02:36:46;12.35;;;8.35;;
27025;SDS011;14565;48.626;8.978;2022-08-30T02:39:12;11.73;;;7.93;;
27025;SDS011;14565;48.626;8.978;2022-08-30T02:41:39;12.50;;;8.05;;
27025;SDS011;14565;48.626;8.978;2022-08-30T02:44:06;12.15;;;8.23;;
27025;SDS011;14565;48.626;8.978;2022-08-30T02:46:32;12.00;;;8.65;;
27025;SDS011;14565;48.626;8.978;2022-08-30T02:48:58;9.25;;;7.72;;
27025;SDS011;14565;48.626;8.978;2022-08-30T02:51:25;11.13;;;7.82;;
27025;SDS011;14565;48.626;8.978;2022-08-30T02:53:50;11.85;;;7.95;;
27025;SDS011;14565;48.626;8.978;2022-08-30T02:56:16;9.20;;;7.72;;
27025;SDS011;14565;48.626;8.978;2022-08-30T02:58:42;11.38;;;7.82;;
27025;SDS011;14565;48.626;8.978;2022-08-30T03:01:09;10.52;;;7.47;;
27025;SDS011;14565;48.626;8.978;2022-08-30T03:03:37;12.45;;;7.95;;
27025;SDS011;14565;48.626;8.978;2022-08-30T03:06:03;12.52;;;8.05;;
27025;SDS011;14565;48.626;8.978;2022-08-30T03:08:29;12.90;;;8.93;;
27025;SDS011;14565;48.626;8.978;2022-08-30T03:10:56;11.48;;;8.40;;
27025;SDS011;14565;48.626;8.978;2022-08-30T03:13:23;11.38;;;8.60;;
27025;SDS011;14565;48.626;8.978;2022-08-30T03:15:49;11.35;;;8.70;;
27025;SDS011;14565;48.626;8.978;2022-08-30T03:18:18;13.20;;;8.52;;
27025;SDS011;14565;48.626;8.978;2022-08-30T03:20:45;13.32;;;9.00;;
27025;SDS011;14565;48.626;8.978;2022-08-30T03:23:12;9.60;;;8.32;;
27025;SDS011;14565;48.626;8.978;2022-08-30T03:25:38;11.77;;;9.25;;
27025;SDS011;14565;48.626;8.978;2022-08-30T03:28:04;14.98;;;9.18;;
27025;SDS011;14565;48.626;8.978;2022-08-30T03:30:30;11.75;;;7.82;;
27025;SDS011;14565;48.626;8.978;2022-08-30T03:32:57;12.07;;;7.97;;
27025;SDS011;14565;48.626;8.978;2022-08-30T03:35:23;11.75;;;7.43;;
27025;SDS011;14565;48.626;8.978;2022-08-30T03:37:49;12.90;;;8.15;;
27025;SDS011;14565;48.626;8.978;2022-08-30T03:40:16;10.07;;;8.05;;
27025;SDS011;14565;48.626;8.978;2022-08-30T03:42:43;11.82;;;8.57;;
27025;SDS011;14565;48.626;8.978;2022-08-30T03:45:10;12.20;;;8.07;;
27025;SDS011;14565;48.626;8.978;2022-08-30T03:47:36;16.55;;;8.50;;
27025;SDS011;14565;48.626;8.978;2022-08-30T03:50:02;11.98;;;8.25;;
27025;SDS011;14565;48.626;8.978;2022-08-30T03:52:28;8.85;;;7.57;;
27025;SDS011;14565;48.626;8.978;2022-08-30T03:54:54;11.38;;;8.27;;
27025;SDS011;14565;48.626;8.978;2022-08-30T03:57:20;12.05;;;8.70;;
27025;SDS011;14565;48.626;8.978;2022-08-30T03:59:45;12.40;;;8.90;;
27025;SDS011;14565;48.626;8.978;2022-08-30T04:02:11;11.38;;;8.35;;
27025;SDS011;14565;48.626;8.978;2022-08-30T04:04:37;14.65;;;9.20;;
27025;SDS011;14565;48.626;8.978;2022-08-30T04:07:02;10.90;;;8.45;;
27025;SDS011;14565;48.626;8.978;2022-08-30T04:09:28;10.82;;;8.43;;
27025;SDS011;14565;48.626;8.978;2022-08-30T04:11:55;14.07;;;8.25;;
27025;SDS011;14565;48.626;8.978;2022-08-30T04:14:21;9.63;;;7.72;;
27025;SDS011;14565;48.626;8.978;2022-08-30T04:16:47;12.57;;;7.95;;
27025;SDS011;14565;48.626;8.978;2022-08-30T04:19:13;12.32;;;8.30;;
27025;SDS011;14565;48.626;8.978;2022-08-30T04:21:39;13.27;;;8.50;;
27025;SDS011;14565;48.626;8.978;2022-08-30T04:24:05;9.65;;;8.07;;
27025;SDS011;14565;48.626;8.978;2022-08-30T04:26:30;13.48;;;8.48;;
27025;SDS011;14565;48.626;8.978;2022-08-30T04:28:56;10.43;;;8.63;;
27025;SDS011;14565;48.626;8.978;2022-08-30T04:31:23;10.98;;;8.18;;
27025;SDS011;14565;48.626;8.978;2022-08-30T04:33:48;10.20;;;7.80;;
27025;SDS011;14565;48.626;8.978;2022-08-30T04:36:14;10.93;;;7.85;;
27025;SDS011;14565;48.626;8.978;2022-08-30T04:38:40;11.00;;;7.65;;
27025;SDS011;14565;48.626;8.978;2022-08-30T04:41:11;11.35;;;7.97;;
27025;SDS011;14565;48.626;8.978;2022-08-30T04:43:40;11.65;;;8.40;;
27025;SDS011;14565;48.626;8.978;2022-08-30T04:46:10;13.38;;;8.45;;
27025;SDS011;14565;48.626;8.978;2022-08-30T04:48:38;13.13;;;8.40;;
27025;SDS011;14565;48.626;8.978;2022-08-30T04:51:07;13.55;;;8.82;;
27025;SDS011;14565;48.626;8.978;2022-08-30T04:53:38;12.50;;;9.02;;
27025;SDS011;14565;48.626;8.978;2022-08-30T04:56:07;11.80;;;8.32;;
27025;SDS011;14565;48.626;8.978;2022-08-30T04:58:34;11.35;;;7.88;;
27025;SDS011;14565;48.626;8.978;2022-08-30T05:01:00;11.43;;;8.57;;
27025;SDS011;14565;48.626;8.978;2022-08-30T05:03:26;11.55;;;8.68;;
27025;SDS011;14565;48.626;8.978;2022-08-30T05:05:52;12.57;;;8.75;;
27025;SDS011;14565;48.626;8.978;2022-08-30T05:08:19;10.50;;;7.97;;
27025;SDS011;14565;48.626;8.978;2022-08-30T05:10:46;15.60;;;9.82;;
27025;SDS011;14565;48.626;8.978;2022-08-30T05:13:18;51.72;;;12.27;;
27025;SDS011;14565;48.626;8.978;2022-08-30T05:15:45;51.47;;;11.88;;
27025;SDS011;14565;48.626;8.978;2022-08-30T05:18:11;37.65;;;10.30;;
27025;SDS011;14565;48.626;8.978;2022-08-30T05:20:38;13.75;;;7.78;;
27025;SDS011;14565;48.626;8.978;2022-08-30T05:23:04;9.18;;;7.32;;
27025;SDS011;14565;48.626;8.978;2022-08-30T05:25:32;9.48;;;7.72;;
27025;SDS011;14565;48.626;8.978;2022-08-30T05:28:00;19.48;;;8.48;;
27025;SDS011;14565;48.626;8.978;2022-08-30T05:30:26;16.83;;;8.88;;
27025;SDS011;14565;48.626;8.978;2022-08-30T05:32:52;14.73;;;8.25;;
27025;SDS011;14565;48.626;8.978;2022-08-30T05:35:19;16.38;;;8.20;;
27025;SDS011;14565;48.626;8.978;2022-08-30T05:37:45;13.35;;;8.45;;
27025;SDS011;14565;48.626;8.978;2022-08-30T05:40:11;14.77;;;9.48;;
27025;SDS011;14565;48.626;8.978;2022-08-30T05:42:41;18.65;;;9.75;;
27025;SDS011;14565;48.626;8.978;2022-08-30T05:45:07;17.52;;;9.38;;
27025;SDS011;14565;48.626;8.978;2022-08-30T05:47:34;13.50;;;9.90;;
27025;SDS011;14565;48.626;8.978;2022-08-30T05:50:00;13.10;;;9.13;;
27025;SDS011;14565;48.626;8.978;2022-08-30T05:52:25;14.88;;;9.68;;
27025;SDS011;14565;48.626;8.978;2022-08-30T05:54:52;13.15;;;8.68;;
27025;SDS011;14565;48.626;8.978;2022-08-30T05:57:19;18.95;;;7.93;;
27025;SDS011;14565;48.626;8.978;2022-08-30T05:59:46;22.48;;;8.68;;
27025;SDS011;14565;48.626;8.978;2022-08-30T06:02:11;17.80;;;8.68;;
27025;SDS011;14565;48.626;8.978;2022-08-30T06:04:37;20.50;;;8.43;;
27025;SDS011;14565;48.626;8.978;2022-08-30T06:07:03;15.70;;;8.30;;
27025;SDS011;14565;48.626;8.978;2022-08-30T06:09:30;12.15;;;8.65;;
27025;SDS011;14565;48.626;8.978;2022-08-30T06:11:56;11.07;;;8.43;;
27025;SDS011;14565;48.626;8.978;2022-08-30T06:14:22;13.82;;;8.35;;
27025;SDS011;14565;48.626;8.978;2022-08-30T06:16:48;12.27;;;8.52;;
27025;SDS011;14565;48.626;8.978;2022-08-30T06:19:14;14.13;;;8.40;;
27025;SDS011;14565;48.626;8.978;2022-08-30T06:21:41;9.95;;;8.32;;
27025;SDS011;14565;48.626;8.978;2022-08-30T06:26:35;17.88;;;9.27;;
27025;SDS011;14565;48.626;8.978;2022-08-30T06:29:04;10.15;;;8.43;;
27025;SDS011;14565;48.626;8.978;2022-08-30T06:31:30;13.70;;;9.15;;
27025;SDS011;14565;48.626;8.978;2022-08-30T06:33:56;12.52;;;8.10;;
27025;SDS011;14565;48.626;8.978;2022-08-30T06:36:22;13.90;;;9.38;;
27025;SDS011;14565;48.626;8.978;2022-08-30T06:38:49;13.52;;;8.77;;
27025;SDS011;14565;48.626;8.978;2022-08-30T06:41:19;14.02;;;8.57;;
27025;SDS011;14565;48.626;8.978;2022-08-30T06:43:47;10.95;;;8.43;;
27025;SDS011;14565;48.626;8.978;2022-08-30T06:46:14;10.95;;;8.32;;
27025;SDS011;14565;48.626;8.978;2022-08-30T06:48:42;13.68;;;8.98;;
27025;SDS011;14565;48.626;8.978;2022-08-30T06:51:08;13.60;;;9.02;;
27025;SDS011;14565;48.626;8.978;2022-08-30T06:53:34;14.18;;;8.40;;
27025;SDS011;14565;48.626;8.978;2022-08-30T06:56:02;9.32;;;7.68;;
27025;SDS011;14565;48.626;8.978;2022-08-30T06:58:32;11.90;;;8.15;;
27025;SDS011;14565;48.626;8.978;2022-08-30T07:00:59;16.33;;;8.77;;
27025;SDS011;14565;48.626;8.978;2022-08-30T07:03:25;12.68;;;8.88;;
27025;SDS011;14565;48.626;8.978;2022-08-30T07:05:51;15.40;;;9.02;;
27025;SDS011;14565;48.626;8.978;2022-08-30T07:08:18;11.20;;;8.35;;
27025;SDS011;14565;48.626;8.978;2022-08-30T07:10:43;7.72;;;6.80;;
27025;SDS011;14565;48.626;8.978;2022-08-30T07:13:10;10.73;;;9.05;;
27025;SDS011;14565;48.626;8.978;2022-08-30T07:15:38;12.18;;;7.70;;
27025;SDS011;14565;48.626;8.978;2022-08-30T07:18:06;9.95;;;7.22;;
27025;SDS011;14565;48.626;8.978;2022-08-30T07:20:51;14.48;;;8.68;;
27025;SDS011;14565;48.626;8.978;2022-08-30T07:23:17;15.32;;;8.80;;
27025;SDS011;14565;48.626;8.978;2022-08-30T07:25:42;10.32;;;7.97;;
27025;SDS011;14565;48.626;8.978;2022-08-30T07:28:08;13.40;;;9.10;;
27025;SDS011;14565;48.626;8.978;2022-08-30T07:30:34;13.38;;;8.77;;
27025;SDS011;14565;48.626;8.978;2022-08-30T07:33:01;10.48;;;7.25;;
27025;SDS011;14565;48.626;8.978;2022-08-30T07:35:27;11.85;;;8.88;;
27025;SDS011;14565;48.626;8.978;2022-08-30T07:37:52;11.30;;;9.30;;
27025;SDS011;14565;48.626;8.978;2022-08-30T07:40:18;11.00;;;8.10;;
27025;SDS011;14565;48.626;8.978;2022-08-30T07:42:44;12.10;;;7.82;;
27025;SDS011;14565;48.626;8.978;2022-08-30T07:45:10;9.75;;;8.00;;
27025;SDS011;14565;48.626;8.978;2022-08-30T07:47:36;10.25;;;7.78;;
27025;SDS011;14565;48.626;8.978;2022-08-30T07:50:03;10.10;;;7.32;;
27025;SDS011;14565;48.626;8.978;2022-08-30T07:52:33;12.15;;;8.07;;
27025;SDS011;14565;48.626;8.978;2022-08-30T07:54:59;10.13;;;7.20;;
27025;SDS011;14565;48.626;8.978;2022-08-30T07:57:25;13.65;;;7.57;;
27025;SDS011;14565;48.626;8.978;2022-08-30T07:59:51;11.60;;;7.10;;
27025;SDS011;14565;48.626;8.978;2022-08-30T08:02:20;11.43;;;7.20;;
27025;SDS011;14565;48.626;8.978;2022-08-30T08:05:07;9.60;;;7.38;;
27025;SDS011;14565;48.626;8.978;2022-08-30T08:07:33;9.87;;;7.70;;
27025;SDS011;14565;48.626;8.978;2022-08-30T08:10:09;10.32;;;6.95;;
27025;SDS011;14565;48.626;8.978;2022-08-30T08:12:56;10.13;;;7.75;;
27025;SDS011;14565;48.626;8.978;2022-08-30T08:15:22;11.63;;;7.10;;
27025;SDS011;14565;48.626;8.978;2022-08-30T08:17:49;11.48;;;7.85;;
27025;SDS011;14565;48.626;8.978;2022-08-30T08:20:15;7.95;;;6.97;;
27025;SDS011;14565;48.626;8.978;2022-08-30T08:22:41;8.35;;;6.70;;
27025;SDS011;14565;48.626;8.978;2022-08-30T08:25:06;10.38;;;7.18;;
27025;SDS011;14565;48.626;8.978;2022-08-30T08:27:32;9.07;;;6.82;;
27025;SDS011;14565;48.626;8.978;2022-08-30T08:29:58;9.20;;;6.43;;
27025;SDS011;14565;48.626;8.978;2022-08-30T08:32:23;9.30;;;7.10;;
27025;SDS011;14565;48.626;8.978;2022-08-30T08:34:49;8.55;;;6.63;;
27025;SDS011;14565;48.626;8.978;2022-08-30T08:37:15;9.57;;;7.10;;
27025;SDS011;14565;48.626;8.978;2022-08-30T08:39:42;11.00;;;6.93;;
27025;SDS011;14565;48.626;8.978;2022-08-30T08:45:11;11.05;;;6.05;;
27025;SDS011;14565;48.626;8.978;2022-08-30T08:50:07;7.85;;;6.65;;
27025;SDS011;14565;48.626;8.978;2022-08-30T08:55:49;10.55;;;6.63;;
27025;SDS011;14565;48.626;8.978;2022-08-30T08:58:23;7.65;;;6.30;;
27025;SDS011;14565;48.626;8.978;2022-08-30T09:00:52;8.60;;;6.07;;
27025;SDS011;14565;48.626;8.978;2022-08-30T09:03:20;8.75;;;6.30;;
27025;SDS011;14565;48.626;8.978;2022-08-30T09:05:47;9.10;;;6.85;;
27025;SDS011;14565;48.626;8.978;2022-08-30T09:08:15;10.30;;;6.43;;
27025;SDS011;14565;48.626;8.978;2022-08-30T09:10:48;9.93;;;7.00;;
27025;SDS011;14565;48.626;8.978;2022-08-30T09:13:18;9.38;;;6.22;;
27025;SDS011;14565;48.626;8.978;2022-08-30T09:15:44;9.32;;;6.72;;
27025;SDS011;14565;48.626;8.978;2022-08-30T09:18:10;8.88;;;6.43;;
27025;SDS011;14565;48.626;8.978;2022-08-30T09:20:41;8.90;;;6.60;;
27025;SDS011;14565;48.626;8.978;2022-08-30T09:25:39;9.23;;;5.32;;
27025;SDS011;14565;48.626;8.978;2022-08-30T09:28:24;11.02;;;6.55;;
27025;SDS011;14565;48.626;8.978;2022-08-30T09:31:05;5.97;;;5.35;;
27025;SDS011;14565;48.626;8.978;2022-08-30T09:33:40;6.68;;;5.60;;
27025;SDS011;14565;48.626;8.978;2022-08-30T09:36:25;7.63;;;5.75;;
27025;SDS011;14565;48.626;8.978;2022-08-30T09:39:04;6.00;;;5.35;;
27025;SDS011;14565;48.626;8.978;2022-08-30T09:41:38;7.55;;;5.32;;
27025;SDS011;14565;48.626;8.978;2022-08-30T09:46:42;8.48;;;5.18;;
27025;SDS011;14565;48.626;8.978;2022-08-30T09:49:28;6.30;;;5.20;;
27025;SDS011;14565;48.626;8.978;2022-08-30T09:57:55;7.60;;;5.53;;
27025;SDS011;14565;48.626;8.978;2022-08-30T10:03:20;7.97;;;5.30;;
27025;SDS011;14565;48.626;8.978;2022-08-30T10:06:19;6.53;;;5.65;;
27025;SDS011;14565;48.626;8.978;2022-08-30T10:14:28;8.73;;;6.10;;
27025;SDS011;14565;48.626;8.978;2022-08-30T10:17:09;7.13;;;5.38;;
27025;SDS011;14565;48.626;8.978;2022-08-30T10:25:00;5.63;;;5.10;;
27025;SDS011;14565;48.626;8.978;2022-08-30T10:27:35;7.95;;;5.30;;
27025;SDS011;14565;48.626;8.978;2022-08-30T10:30:38;6.68;;;4.85;;
27025;SDS011;14565;48.626;8.978;2022-08-30T10:33:20;6.13;;;4.82;;
27025;SDS011;14565;48.626;8.978;2022-08-30T10:35:55;6.13;;;5.32;;
27025;SDS011;14565;48.626;8.978;2022-08-30T10:38:37;5.60;;;5.00;;
27025;SDS011;14565;48.626;8.978;2022-08-30T10:43:56;6.00;;;4.95;;
27025;SDS011;14565;48.626;8.978;2022-08-30T10:49:16;6.15;;;5.05;;
27025;SDS011;14565;48.626;8.978;2022-08-30T10:54:30;9.60;;;4.75;;
27025;SDS011;14565;48.626;8.978;2022-08-30T10:57:02;5.30;;;4.65;;
27025;SDS011;14565;48.626;8.978;2022-08-30T10:59:28;10.05;;;4.90;;
27025;SDS011;14565;48.626;8.978;2022-08-30T11:02:02;4.90;;;4.40;;
27025;SDS011;14565;48.626;8.978;2022-08-30T11:10:20;7.43;;;4.40;;
27025;SDS011;14565;48.626;8.978;2022-08-30T11:12:56;6.15;;;4.30;;
27025;SDS011;14565;48.626;8.978;2022-08-30T11:15:24;6.13;;;4.72;;
27025;SDS011;14565;48.626;8.978;2022-08-30T11:20:29;6.05;;;4.50;;
27025;SDS011;14565;48.626;8.978;2022-08-30T11:29:00;4.63;;;3.60;;
27025;SDS011;14565;48.626;8.978;2022-08-30T11:31:33;5.05;;;4.10;;
27025;SDS011;14565;48.626;8.978;2022-08-30T11:34:04;4.90;;;4.43;;
27025;SDS011;14565;48.626;8.978;2022-08-30T11:44:52;5.43;;;4.45;;
27025;SDS011;14565;48.626;8.978;2022-08-30T11:47:37;5.22;;;4.15;;
27025;SDS011;14565;48.626;8.978;2022-08-30T11:50:11;5.75;;;4.45;;
27025;SDS011;14565;48.626;8.978;2022-08-30T11:55:37;5.90;;;4.28;;
27025;SDS011;14565;48.626;8.978;2022-08-30T12:03:44;5.68;;;4.50;;
27025;SDS011;14565;48.626;8.978;2022-08-30T12:09:07;4.45;;;4.05;;
27025;SDS011;14565;48.626;8.978;2022-08-30T12:14:01;5.70;;;4.40;;
27025;SDS011;14565;48.626;8.978;2022-08-30T12:19:30;5.72;;;4.20;;
27025;SDS011;14565;48.626;8.978;2022-08-30T12:21:58;5.20;;;4.32;;
27025;SDS011;14565;48.626;8.978;2022-08-30T12:27:00;6.15;;;4.38;;
27025;SDS011;14565;48.626;8.978;2022-08-30T12:29:49;4.93;;;4.43;;
27025;SDS011;14565;48.626;8.978;2022-08-30T12:32:23;6.60;;;4.38;;
27025;SDS011;14565;48.626;8.978;2022-08-30T12:34:51;5.60;;;3.97;;
27025;SDS011;14565;48.626;8.978;2022-08-30T12:37:34;4.78;;;4.38;;
27025;SDS011;14565;48.626;8.978;2022-08-30T12:40:13;6.25;;;5.03;;
27025;SDS011;14565;48.626;8.978;2022-08-30T12:42:49;7.18;;;4.75;;
27025;SDS011;14565;48.626;8.978;2022-08-30T12:45:18;5.95;;;4.70;;
27025;SDS011;14565;48.626;8.978;2022-08-30T12:47:57;6.03;;;4.72;;
27025;SDS011;14565;48.626;8.978;2022-08-30T12:55:55;7.93;;;4.78;;
27025;SDS011;14565;48.626;8.978;2022-08-30T13:01:12;4.88;;;4.20;;
27025;SDS011;14565;48.626;8.978;2022-08-30T13:06:34;6.07;;;4.72;;
27025;SDS011;14565;48.626;8.978;2022-08-30T13:09:26;4.57;;;3.80;;
27025;SDS011;14565;48.626;8.978;2022-08-30T13:11:53;7.93;;;4.18;;
27025;SDS011;14565;48.626;8.978;2022-08-30T13:14:40;9.30;;;4.57;;
27025;SDS011;14565;48.626;8.978;2022-08-30T13:17:09;4.70;;;4.28;;
27025;SDS011;14565;48.626;8.978;2022-08-30T13:19:55;5.90;;;4.40;;
27025;SDS011;14565;48.626;8.978;2022-08-30T13:22:23;4.65;;;4.25;;
27025;SDS011;14565;48.626;8.978;2022-08-30T13:24:49;6.18;;;4.50;;
27025;SDS011;14565;48.626;8.978;2022-08-30T13:27:16;5.13;;;4.50;;
27025;SDS011;14565;48.626;8.978;2022-08-30T13:29:42;10.35;;;4.80;;
27025;SDS011;14565;48.626;8.978;2022-08-30T13:32:08;6.40;;;4.32;;
27025;SDS011;14565;48.626;8.978;2022-08-30T13:34:34;7.15;;;4.70;;
27025;SDS011;14565;48.626;8.978;2022-08-30T13:37:00;5.80;;;4.30;;
27025;SDS011;14565;48.626;8.978;2022-08-30T13:39:26;6.25;;;4.22;;
27025;SDS011;14565;48.626;8.978;2022-08-30T13:42:02;5.05;;;4.28;;
27025;SDS011;14565;48.626;8.978;2022-08-30T13:44:44;4.85;;;4.28;;
27025;SDS011;14565;48.626;8.978;2022-08-30T13:47:09;6.45;;;4.53;;
27025;SDS011;14565;48.626;8.978;2022-08-30T13:49:37;8.82;;;4.90;;
27025;SDS011;14565;48.626;8.978;2022-08-30T13:52:04;6.18;;;4.15;;
27025;SDS011;14565;48.626;8.978;2022-08-30T13:54:32;5.38;;;4.13;;
27025;SDS011;14565;48.626;8.978;2022-08-30T13:56:57;6.05;;;4.15;;
27025;SDS011;14565;48.626;8.978;2022-08-30T13:59:23;6.70;;;4.10;;
27025;SDS011;14565;48.626;8.978;2022-08-30T14:01:50;5.68;;;3.85;;
27025;SDS011;14565;48.626;8.978;2022-08-30T14:04:17;6.25;;;4.20;;
27025;SDS011;14565;48.626;8.978;2022-08-30T14:06:43;5.65;;;3.97;;
27025;SDS011;14565;48.626;8.978;2022-08-30T14:09:09;7.93;;;4.40;;
27025;SDS011;14565;48.626;8.978;2022-08-30T14:11:36;5.93;;;4.38;;
27025;SDS011;14565;48.626;8.978;2022-08-30T14:14:16;5.20;;;4.70;;
27025;SDS011;14565;48.626;8.978;2022-08-30T14:16:42;4.90;;;4.38;;
27025;SDS011;14565;48.626;8.978;2022-08-30T14:19:22;5.30;;;4.80;;
27025;SDS011;14565;48.626;8.978;2022-08-30T14:21:51;6.88;;;4.45;;
27025;SDS011;14565;48.626;8.978;2022-08-30T14:24:49;5.10;;;4.60;;
27025;SDS011;14565;48.626;8.978;2022-08-30T14:27:31;4.82;;;4.07;;
27025;SDS011;14565;48.626;8.978;2022-08-30T14:30:00;6.05;;;4.18;;
27025;SDS011;14565;48.626;8.978;2022-08-30T14:32:26;6.57;;;4.50;;
27025;SDS011;14565;48.626;8.978;2022-08-30T14:35:02;4.53;;;3.88;;
27025;SDS011;14565;48.626;8.978;2022-08-30T14:37:54;5.22;;;4.70;;
27025;SDS011;14565;48.626;8.978;2022-08-30T14:40:32;5.40;;;4.15;;
27025;SDS011;14565;48.626;8.978;2022-08-30T14:42:58;4.50;;;4.03;;
27025;SDS011;14565;48.626;8.978;2022-08-30T14:45:24;5.07;;;4.55;;
27025;SDS011;14565;48.626;8.978;2022-08-30T14:47:52;5.53;;;4.22;;
27025;SDS011;14565;48.626;8.978;2022-08-30T14:50:33;7.97;;;4.72;;
27025;SDS011;14565;48.626;8.978;2022-08-30T14:53:03;7.43;;;4.47;;
27025;SDS011;14565;48.626;8.978;2022-08-30T14:55:30;5.75;;;4.50;;
27025;SDS011;14565;48.626;8.978;2022-08-30T14:57:58;5.53;;;4.40;;
27025;SDS011;14565;48.626;8.978;2022-08-30T15:00:24;4.60;;;4.20;;
27025;SDS011;14565;48.626;8.978;2022-08-30T15:02:50;7.57;;;4.30;;
27025;SDS011;14565;48.626;8.978;2022-08-30T15:05:17;5.03;;;4.00;;
27025;SDS011;14565;48.626;8.978;2022-08-30T15:07:48;4.68;;;4.25;;
27025;SDS011;14565;48.626;8.978;2022-08-30T15:10:15;5.35;;;4.55;;
27025;SDS011;14565;48.626;8.978;2022-08-30T15:12:45;6.10;;;4.18;;
27025;SDS011;14565;48.626;8.978;2022-08-30T15:15:13;5.93;;;4.22;;
27025;SDS011;14565;48.626;8.978;2022-08-30T15:17:40;6.22;;;4.47;;
27025;SDS011;14565;48.626;8.978;2022-08-30T15:20:07;7.53;;;4.30;;
27025;SDS011;14565;48.626;8.978;2022-08-30T15:22:34;5.60;;;4.40;;
27025;SDS011;14565;48.626;8.978;2022-08-30T15:24:59;4.55;;;4.07;;
27025;SDS011;14565;48.626;8.978;2022-08-30T15:27:26;7.75;;;4.20;;
27025;SDS011;14565;48.626;8.978;2022-08-30T15:29:52;7.38;;;4.22;;
27025;SDS011;14565;48.626;8.978;2022-08-30T15:32:18;4.88;;;4.45;;
27025;SDS011;14565;48.626;8.978;2022-08-30T15:34:43;6.43;;;4.70;;
27025;SDS011;14565;48.626;8.978;2022-08-30T15:37:09;4.97;;;4.28;;
27025;SDS011;14565;48.626;8.978;2022-08-30T15:39:35;4.43;;;4.03;;
27025;SDS011;14565;48.626;8.978;2022-08-30T15:42:00;4.20;;;3.80;;
27025;SDS011;14565;48.626;8.978;2022-08-30T15:44:27;7.15;;;4.28;;
27025;SDS011;14565;48.626;8.978;2022-08-30T15:46:53;7.15;;;4.38;;
27025;SDS011;14565;48.626;8.978;2022-08-30T15:49:20;7.85;;;4.40;;
27025;SDS011;14565;48.626;8.978;2022-08-30T15:51:47;5.05;;;4.43;;
27025;SDS011;14565;48.626;8.978;2022-08-30T15:54:14;6.23;;;4.20;;
27025;SDS011;14565;48.626;8.978;2022-08-30T15:56:42;4.38;;;3.95;;
27025;SDS011;14565;48.626;8.978;2022-08-30T15:59:09;5.50;;;4.00;;
27025;SDS011;14565;48.626;8.978;2022-08-30T16:01:35;6.18;;;5.03;;
27025;SDS011;14565;48.626;8.978;2022-08-30T16:04:02;7.15;;;4.78;;
27025;SDS011;14565;48.626;8.978;2022-08-30T16:06:29;5.13;;;4.63;;
27025;SDS011;14565;48.626;8.978;2022-08-30T16:08:58;5.30;;;4.45;;
27025;SDS011;14565;48.626;8.978;2022-08-30T16:11:25;5.85;;;4.63;;
27025;SDS011;14565;48.626;8.978;2022-08-30T16:13:52;5.22;;;4.60;;
27025;SDS011;14565;48.626;8.978;2022-08-30T16:16:19;7.18;;;4.90;;
27025;SDS011;14565;48.626;8.978;2022-08-30T16:18:46;9.27;;;5.10;;
27025;SDS011;14565;48.626;8.978;2022-08-30T16:21:15;5.83;;;4.27;;
27025;SDS011;14565;48.626;8.978;2022-08-30T16:23:43;5.88;;;4.47;;
27025;SDS011;14565;48.626;8.978;2022-08-30T16:29:00;8.50;;;4.88;;
27025;SDS011;14565;48.626;8.978;2022-08-30T16:31:27;4.95;;;4.18;;
27025;SDS011;14565;48.626;8.978;2022-08-30T16:33:54;7.30;;;4.47;;
27025;SDS011;14565;48.626;8.978;2022-08-30T16:36:21;4.90;;;4.22;;